Time;durP1;ratioP1;P1;durP2;ratioP2;P2;SDS_P1;SDS_P2;PMS_P1;PMS_P2;Temp;Humidity;BMP_temperature;BMP_pressure;BME280_temperature;BME280_humidity;BME280_pressure;Samples;Min_cycle;Max_cycle;Signal;HPM_P1;HPM_P2
2021/05/02 00:00:09;;;;;;;106.57;65.50;;;17.40;76.80;;;;;;5075588;28;20024;-65
2021/05/02 00:02:35;;;;;;;100.93;63.83;;;17.40;77.20;;;;;;5074992;28;20048;-65
2021/05/02 00:05:05;;;;;;;107.07;65.30;;;17.30;77.20;;;;;;5075179;28;20016;-65
2021/05/02 00:07:31;;;;;;;96.43;60.43;;;17.30;77.30;;;;;;5074849;28;20115;-65
2021/05/02 00:09:58;;;;;;;103.65;63.40;;;17.30;77.50;;;;;;5075114;28;20025;-65
2021/05/02 00:12:24;;;;;;;102.50;65.28;;;17.20;77.60;;;;;;5074993;28;20029;-65
2021/05/02 00:14:50;;;;;;;98.00;60.80;;;17.20;77.60;;;;;;5074738;28;20028;-65
2021/05/02 00:17:16;;;;;;;94.00;58.17;;;17.20;77.60;;;;;;5074881;28;20492;-65
2021/05/02 00:19:44;;;;;;;90.43;59.10;;;17.30;77.80;;;;;;5074333;28;20416;-65
2021/05/02 00:22:11;;;;;;;93.22;57.50;;;17.20;77.80;;;;;;5074644;28;20099;-65
2021/05/02 00:24:37;;;;;;;93.50;59.35;;;17.20;77.90;;;;;;5074521;28;20056;-65
2021/05/02 00:27:04;;;;;;;89.70;57.08;;;17.20;78.10;;;;;;5074765;28;20028;-65
2021/05/02 00:29:31;;;;;;;89.68;57.15;;;17.10;78.10;;;;;;5074396;28;20517;-65
2021/05/02 00:31:58;;;;;;;91.60;57.17;;;17.10;78.20;;;;;;5074607;28;20036;-65
2021/05/02 00:34:24;;;;;;;83.30;53.15;;;17.10;78.20;;;;;;5074509;28;20029;-65
2021/05/02 00:36:50;;;;;;;93.88;54.78;;;17.10;78.30;;;;;;5074267;28;20386;-65
2021/05/02 00:39:16;;;;;;;86.45;52.15;;;17.10;78.40;;;;;;5074314;28;20020;-65
2021/05/02 00:41:45;;;;;;;82.97;52.67;;;17.10;78.40;;;;;;5074400;28;20047;-65
2021/05/02 00:44:26;;;;;;;82.15;51.75;;;17.10;78.40;;;;;;5074340;28;20525;-65
2021/05/02 00:47:14;;;;;;;83.28;53.88;;;17.10;78.50;;;;;;5074250;28;20462;-65
2021/05/02 00:49:42;;;;;;;80.95;50.72;;;17.10;78.40;;;;;;5056464;28;20035;-65
2021/05/02 00:52:53;;;;;;;79.53;49.33;;;17.20;78.20;;;;;;5074181;28;20474;-65
2021/05/02 00:55:26;;;;;;;;;;;17.20;78.00;;;;;;4993127;28;20133;-65
2021/05/02 00:58:03;;;;;;;73.63;47.42;;;17.30;77.60;;;;;;5009148;28;19912;-65
2021/05/02 01:00:37;;;;;;;76.43;46.25;;;17.40;78.10;;;;;;5040922;28;20389;-65
2021/05/02 01:03:04;;;;;;;77.70;47.78;;;17.40;77.30;;;;;;5074557;28;20036;-65
2021/05/02 01:05:31;;;;;;;72.40;45.42;;;17.30;77.30;;;;;;5056153;28;20116;-65
2021/05/02 01:08:03;;;;;;;78.18;47.22;;;17.30;77.50;;;;;;5074190;28;20054;-65
2021/05/02 01:10:30;;;;;;;73.13;46.75;;;17.20;77.60;;;;;;5074140;28;20025;-65
2021/05/02 01:13:01;;;;;;;80.38;46.88;;;17.20;77.70;;;;;;5055987;28;20028;-65
2021/05/02 01:15:33;;;;;;;72.90;47.25;;;17.20;77.80;;;;;;5073691;28;20024;-65
2021/05/02 01:18:09;;;;;;;71.63;44.67;;;17.20;77.80;;;;;;5074070;28;20355;-65
2021/05/02 01:20:43;;;;;;;70.32;44.22;;;17.20;77.90;;;;;;5073817;28;20024;-65
2021/05/02 01:23:18;;;;;;;71.45;43.90;;;17.10;77.90;;;;;;5055956;28;20124;-65
2021/05/02 01:25:47;;;;;;;68.50;43.05;;;17.10;78.00;;;;;;5055838;28;20029;-65
2021/05/02 01:28:12;;;;;;;72.22;43.13;;;17.10;78.00;;;;;;5055818;28;20076;-65
2021/05/02 01:30:39;;;;;;;70.28;42.83;;;17.10;78.10;;;;;;5073662;28;20027;-65
2021/05/02 01:33:05;;;;;;;71.13;43.50;;;17.10;78.20;;;;;;5073724;28;20024;-65
2021/05/02 01:35:31;;;;;;;69.90;42.58;;;17.10;78.30;;;;;;5055693;28;20383;-65
2021/05/02 01:37:56;;;;;;;66.60;41.45;;;17.10;78.30;;;;;;5073614;28;20024;-65
2021/05/02 01:40:22;;;;;;;71.15;43.38;;;17.10;78.40;;;;;;5073604;28;20412;-65
2021/05/02 01:42:49;;;;;;;62.03;40.35;;;17.00;78.40;;;;;;5056226;28;20385;-65
2021/05/02 01:45:16;;;;;;;64.75;39.03;;;17.10;78.70;;;;;;5073624;28;20139;-65
2021/05/02 01:48:04;;;;;;;64.15;40.25;;;17.00;78.50;;;;;;5073612;28;20424;-65
2021/05/02 01:50:52;;;;;;;66.38;39.85;;;17.00;78.50;;;;;;5073687;28;20114;-65
2021/05/02 01:53:18;;;;;;;61.70;39.60;;;17.00;78.70;;;;;;5072888;28;20449;-65
2021/05/02 01:55:46;;;;;;;65.25;39.35;;;17.10;78.40;;;;;;5055619;28;20103;-65
2021/05/02 01:58:13;;;;;;;59.28;36.47;;;17.10;78.30;;;;;;5073494;28;20024;-65
2021/05/02 02:00:45;;;;;;;60.72;39.05;;;17.20;78.10;;;;;;5073350;28;20099;-65
2021/05/02 02:03:11;;;;;;;61.88;37.83;;;17.20;77.90;;;;;;5055635;28;20032;-65
2021/05/02 02:05:38;;;;;;;58.30;36.78;;;17.30;77.70;;;;;;5073647;28;20028;-65
2021/05/02 02:08:08;;;;;;;61.67;37.85;;;17.30;77.40;;;;;;5073492;28;20029;-65
2021/05/02 02:10:35;;;;;;;54.17;35.22;;;17.30;77.30;;;;;;5073528;28;20031;-65
2021/05/02 02:13:02;;;;;;;59.53;37.35;;;17.20;77.50;;;;;;5058051;28;20028;-65
2021/05/02 02:15:29;;;;;;;58.20;36.08;;;17.20;77.60;;;;;;5077214;28;20031;-65
2021/05/02 02:17:55;;;;;;;60.75;36.58;;;17.20;77.90;;;;;;5076830;28;20032;-65
2021/05/02 02:20:26;;;;;;;55.60;34.63;;;17.20;78.00;;;;;;5076980;28;20025;-65
2021/05/02 02:22:54;;;;;;;;;;;17.10;78.00;;;;;;5077715;28;20090;-65
2021/05/02 02:25:24;;;;;;;59.75;36.22;;;17.10;78.80;;;;;;5076795;28;19916;-65
2021/05/02 02:27:52;;;;;;;56.05;35.13;;;17.10;78.20;;;;;;5077094;28;20020;-65
2021/05/02 02:30:19;;;;;;;52.75;33.45;;;17.10;78.20;;;;;;5058881;28;20111;-66
2021/05/02 02:32:47;;;;;;;52.15;32.88;;;17.10;78.30;;;;;;5076561;28;20040;-65
2021/05/02 02:35:20;;;;;;;50.17;32.80;;;17.00;78.40;;;;;;5077081;28;20028;-65
2021/05/02 02:37:50;;;;;;;53.95;32.70;;;17.00;78.40;;;;;;5076810;28;20152;-65
2021/05/02 02:40:16;;;;;;;53.50;32.92;;;17.00;78.60;;;;;;5076805;28;20525;-65
2021/05/02 02:42:46;;;;;;;59.45;34.15;;;17.00;78.50;;;;;;5076603;28;20150;-65
2021/05/02 02:45:13;;;;;;;56.00;33.33;;;17.00;78.70;;;;;;5076732;28;20025;-65
2021/05/02 02:47:57;;;;;;;52.88;33.10;;;17.00;78.70;;;;;;5076632;28;20024;-65
2021/05/02 02:50:23;;;;;;;50.63;29.52;;;17.00;78.80;;;;;;5076492;28;20112;-65
2021/05/02 02:52:55;;;;;;;54.17;32.70;;;16.90;78.80;;;;;;5058579;28;20373;-65
2021/05/02 02:55:25;;;;;;;49.28;29.88;;;17.00;78.80;;;;;;5076467;28;20032;-65
2021/05/02 02:58:05;;;;;;;48.50;30.58;;;17.00;78.90;;;;;;5076279;28;20470;-65
2021/05/02 03:00:33;;;;;;;51.95;31.45;;;17.00;78.80;;;;;;5076510;28;20025;-65
2021/05/02 03:03:11;;;;;;;46.78;31.55;;;17.10;78.40;;;;;;5076366;28;20039;-65
2021/05/02 03:05:37;;;;;;;48.83;29.83;;;17.10;78.30;;;;;;5076335;28;20138;-65
2021/05/02 03:08:06;;;;;;;47.92;30.40;;;17.10;78.10;;;;;;5076760;28;20031;-65
2021/05/02 03:10:32;;;;;;;49.67;30.23;;;17.10;78.20;;;;;;5076432;28;20028;-65
2021/05/02 03:12:59;;;;;;;44.40;29.10;;;17.20;77.90;;;;;;5076179;28;20029;-65
2021/05/02 03:15:26;;;;;;;47.05;27.45;;;17.30;77.40;;;;;;5076260;28;20059;-65
2021/05/02 03:18:05;;;;;;;41.75;26.00;;;17.40;77.10;;;;;;5075999;28;20025;-65
2021/05/02 03:20:37;;;;;;;44.95;27.80;;;17.50;77.00;;;;;;5076113;28;20024;-65
2021/05/02 03:23:14;;;;;;;39.92;27.45;;;17.60;76.60;;;;;;5057406;28;20033;-65
2021/05/02 03:25:45;;;;;;;40.17;25.10;;;17.70;76.10;;;;;;5075990;28;20044;-65
2021/05/02 03:28:15;;;;;;;42.20;27.02;;;17.80;75.90;;;;;;5058206;28;20066;-65
2021/05/02 03:30:42;;;;;;;44.28;26.92;;;18.00;75.20;;;;;;5075845;28;20020;-65
2021/05/02 03:33:11;;;;;;;39.45;24.90;;;18.10;74.60;;;;;;5075662;28;20466;-65
2021/05/02 03:35:40;;;;;;;39.00;24.70;;;18.20;74.20;;;;;;5075794;28;20025;-65
2021/05/02 03:38:41;;;;;;;44.90;26.20;;;18.20;74.00;;;;;;5075595;28;20040;-65
2021/05/02 03:41:08;;;;;;;40.35;26.10;;;18.30;74.00;;;;;;5075927;28;20090;-65
2021/05/02 03:43:37;;;;;;;42.88;26.45;;;18.30;73.90;;;;;;5075692;28;20374;-65
2021/05/02 03:46:03;;;;;;;40.13;24.73;;;18.30;74.00;;;;;;5075499;28;20053;-65
2021/05/02 03:48:29;;;;;;;38.50;25.60;;;18.30;74.00;;;;;;5075677;28;20032;-65
2021/05/02 03:50:54;;;;;;;38.15;24.33;;;18.30;74.10;;;;;;5075439;28;20024;-65
2021/05/02 03:53:20;;;;;;;38.70;23.45;;;18.30;74.20;;;;;;5075430;28;20480;-65
2021/05/02 03:55:47;;;;;;;40.50;25.58;;;18.30;74.20;;;;;;5075651;28;20111;-65
2021/05/02 03:58:17;;;;;;;40.45;24.50;;;18.30;74.20;;;;;;5075591;28;20059;-65
2021/05/02 04:00:44;;;;;;;40.63;24.13;;;18.20;74.20;;;;;;5075256;28;20091;-65
2021/05/02 04:03:13;;;;;;;37.33;22.50;;;18.20;74.20;;;;;;5075256;28;20112;-65
2021/05/02 04:05:38;;;;;;;35.10;23.35;;;18.20;74.50;;;;;;5075085;28;20032;-65
2021/05/02 04:08:04;;;;;;;40.08;23.77;;;18.20;74.20;;;;;;5057144;28;20029;-65
2021/05/02 04:10:30;;;;;;;37.05;24.20;;;18.30;74.20;;;;;;5075006;28;20112;-65
2021/05/02 04:12:56;;;;;;;32.85;21.83;;;18.20;74.50;;;;;;5075109;28;20029;-65
2021/05/02 04:15:22;;;;;;;35.60;24.13;;;18.20;74.30;;;;;;5075206;28;20031;-65
2021/05/02 04:17:47;;;;;;;35.38;21.85;;;18.20;74.30;;;;;;5074885;28;20055;-65
2021/05/02 04:20:14;;;;;;;33.90;21.42;;;18.30;74.20;;;;;;5057022;28;20425;-65
2021/05/02 04:22:40;;;;;;;33.63;21.38;;;18.30;74.20;;;;;;5074423;28;20385;-65
2021/05/02 04:25:07;;;;;;;35.80;23.05;;;18.30;74.20;;;;;;5075103;28;20045;-65
2021/05/02 04:27:33;;;;;;;35.15;22.42;;;18.20;74.20;;;;;;5074808;28;20424;-65
2021/05/02 04:29:58;;;;;;;31.17;19.75;;;18.20;74.20;;;;;;5074530;28;20465;-65
2021/05/02 04:32:25;;;;;;;32.47;20.52;;;18.20;74.20;;;;;;5074742;28;20496;-65
2021/05/02 04:34:52;;;;;;;34.38;21.35;;;18.10;74.30;;;;;;5056386;28;20359;-65
2021/05/02 04:37:18;;;;;;;28.10;19.15;;;18.10;74.50;;;;;;5074312;28;20029;-66
2021/05/02 04:39:44;;;;;;;33.42;20.75;;;18.10;74.50;;;;;;5074743;28;20025;-65
2021/05/02 04:42:10;;;;;;;29.13;18.63;;;18.10;74.50;;;;;;5074395;28;20033;-65
2021/05/02 04:44:36;;;;;;;31.35;19.55;;;18.10;74.60;;;;;;5074413;28;20068;-65
2021/05/02 04:47:01;;;;;;;33.35;19.38;;;18.10;74.60;;;;;;5074403;28;20062;-65
2021/05/02 04:49:27;;;;;;;33.00;20.25;;;18.10;74.70;;;;;;5074294;28;20025;-65
2021/05/02 04:51:53;;;;;;;29.23;19.88;;;18.10;74.80;;;;;;5074301;28;20534;-65
2021/05/02 04:54:20;;;;;;;27.83;18.27;;;18.00;74.70;;;;;;5074259;28;20028;-65
2021/05/02 04:56:47;;;;;;;29.05;18.42;;;18.00;74.80;;;;;;5074097;28;20381;-65
2021/05/02 04:59:13;;;;;;;31.00;18.70;;;18.00;74.90;;;;;;5074104;28;20024;-65
2021/05/02 05:01:42;;;;;;;30.45;18.25;;;17.90;74.90;;;;;;5055822;28;20043;-65
2021/05/02 05:04:07;;;;;;;28.60;17.85;;;17.90;75.00;;;;;;5074058;28;20070;-65
2021/05/02 05:06:34;;;;;;;28.02;18.15;;;17.90;75.00;;;;;;5074318;28;20028;-65
2021/05/02 05:09:00;;;;;;;27.48;16.60;;;17.90;75.10;;;;;;5074041;28;20521;-65
2021/05/02 05:11:25;;;;;;;27.67;17.60;;;17.90;75.00;;;;;;5074001;28;20075;-65
2021/05/02 05:13:51;;;;;;;27.67;16.95;;;17.90;75.10;;;;;;5073719;28;20035;-65
2021/05/02 05:16:17;;;;;;;27.00;16.35;;;17.90;75.00;;;;;;5073936;28;20036;-65
2021/05/02 05:18:43;;;;;;;28.25;17.35;;;17.90;75.00;;;;;;5055620;28;20457;-65
2021/05/02 05:21:09;;;;;;;24.33;15.60;;;17.90;75.00;;;;;;5073814;28;20040;-65
2021/05/02 05:23:34;;;;;;;27.10;16.52;;;18.00;75.00;;;;;;5073585;28;20048;-65
2021/05/02 05:26:00;;;;;;;23.38;15.65;;;17.90;75.00;;;;;;5056135;28;20461;-66
2021/05/02 05:28:25;;;;;;;26.15;17.63;;;18.00;74.70;;;;;;5073987;28;20025;-65
2021/05/02 05:30:53;;;;;;;24.40;15.90;;;18.00;74.70;;;;;;5073834;28;20029;-65
2021/05/02 05:33:19;;;;;;;26.52;14.82;;;18.00;74.70;;;;;;5073687;28;20116;-65
2021/05/02 05:35:44;;;;;;;24.48;14.68;;;18.00;74.70;;;;;;5073712;28;20067;-65
2021/05/02 05:38:10;;;;;;;23.90;15.20;;;18.00;74.70;;;;;;5073597;28;20028;-65
2021/05/02 05:40:36;;;;;;;25.10;17.58;;;17.90;74.70;;;;;;5073909;28;20428;-65
2021/05/02 05:43:03;;;;;;;22.20;14.55;;;17.90;74.70;;;;;;5073655;28;20068;-65
2021/05/02 05:45:30;;;;;;;23.65;14.93;;;17.90;74.80;;;;;;5073660;28;20078;-65
2021/05/02 05:47:56;;;;;;;24.80;15.63;;;17.90;74.80;;;;;;5072737;28;20032;-66
2021/05/02 05:50:22;;;;;;;23.48;14.82;;;17.90;74.80;;;;;;5073550;28;20036;-65
2021/05/02 05:52:50;;;;;;;23.35;14.25;;;17.90;74.90;;;;;;5073391;28;20446;-65
2021/05/02 05:55:16;;;;;;;23.70;14.63;;;17.90;74.90;;;;;;5073679;28;20052;-65
2021/05/02 05:57:48;;;;;;;25.52;15.23;;;17.90;74.80;;;;;;5073528;28;20036;-65
2021/05/02 06:00:15;;;;;;;23.75;14.75;;;17.90;75.00;;;;;;5073454;28;20032;-66
2021/05/02 06:02:41;;;;;;;22.45;13.45;;;17.90;75.00;;;;;;5073337;28;20091;-65
2021/05/02 06:05:08;;;;;;;23.25;15.18;;;17.90;74.90;;;;;;5073203;28;20024;-65
2021/05/02 06:07:33;;;;;;;22.38;14.10;;;17.80;75.00;;;;;;5055389;28;20021;-65
2021/05/02 06:09:59;;;;;;;24.38;14.02;;;17.80;75.00;;;;;;5073308;28;20031;-65
2021/05/02 06:12:25;;;;;;;23.85;15.32;;;17.80;74.80;;;;;;5073414;28;20028;-65
2021/05/02 06:14:51;;;;;;;22.27;14.35;;;17.80;75.20;;;;;;5088641;28;20028;-66
2021/05/02 06:17:16;;;;;;;21.30;14.02;;;17.80;75.30;;;;;;5073202;28;20107;-66
2021/05/02 06:19:43;;;;;;;22.90;14.60;;;17.90;75.30;;;;;;5055329;28;20470;-66
2021/05/02 06:22:09;;;;;;;22.13;13.65;;;17.90;75.30;;;;;;5073136;28;20029;-66
2021/05/02 06:24:35;;;;;;;22.67;15.35;;;17.90;74.90;;;;;;5055012;28;20498;-65
2021/05/02 06:27:01;;;;;;;25.08;14.07;;;18.00;74.90;;;;;;5073318;28;20035;-65
2021/05/02 06:29:27;;;;;;;23.02;13.70;;;18.00;74.70;;;;;;5073101;28;20020;-66
2021/05/02 06:31:52;;;;;;;19.58;12.88;;;18.00;74.90;;;;;;5072774;28;20029;-66
2021/05/02 06:34:18;;;;;;;19.88;13.38;;;18.00;74.90;;;;;;5054935;28;20029;-66
2021/05/02 06:36:44;;;;;;;20.33;13.60;;;17.90;74.90;;;;;;5073273;28;20120;-66
2021/05/02 06:39:10;;;;;;;21.73;13.23;;;17.90;74.80;;;;;;5073412;28;20460;-66
2021/05/02 06:41:39;;;;;;;23.23;12.88;;;17.90;74.80;;;;;;5055023;28;20064;-66
2021/05/02 06:44:05;;;;;;;22.73;13.35;;;17.90;74.80;;;;;;5072920;28;20028;-66
2021/05/02 06:46:31;;;;;;;19.65;12.50;;;17.90;74.80;;;;;;5073073;28;20039;-66
2021/05/02 06:49:02;;;;;;;21.52;13.43;;;17.90;75.00;;;;;;5072976;28;20021;-66
2021/05/02 06:51:28;;;;;;;20.88;12.38;;;17.90;74.90;;;;;;5073015;28;20033;-65
2021/05/02 06:53:55;;;;;;;20.00;12.65;;;17.90;75.00;;;;;;5072910;28;20465;-65
2021/05/02 06:56:21;;;;;;;21.52;13.25;;;17.90;75.00;;;;;;5072893;28;20087;-66
2021/05/02 06:58:51;;;;;;;20.10;11.88;;;17.90;75.00;;;;;;5075647;28;20028;-65
2021/05/02 07:01:16;;;;;;;21.73;12.95;;;17.90;75.00;;;;;;5076082;28;20048;-66
2021/05/02 07:03:42;;;;;;;22.17;13.15;;;17.90;75.00;;;;;;5092033;28;20024;-66
2021/05/02 07:06:08;;;;;;;18.95;11.85;;;17.80;75.00;;;;;;5076235;28;20025;-66
2021/05/02 07:08:34;;;;;;;18.80;12.88;;;17.80;75.00;;;;;;5076325;28;20465;-66
2021/05/02 07:11:00;;;;;;;18.88;11.75;;;17.80;75.00;;;;;;5076200;28;20103;-66
2021/05/02 07:13:27;;;;;;;21.00;12.40;;;17.80;75.70;;;;;;5058751;28;20428;-66
2021/05/02 07:15:54;;;;;;;19.73;12.30;;;17.80;75.00;;;;;;5076239;28;20016;-65
2021/05/02 07:18:19;;;;;;;20.05;12.15;;;17.80;75.40;;;;;;5076079;28;20035;-65
2021/05/02 07:20:47;;;;;;;18.38;10.93;;;17.70;75.50;;;;;;5091641;28;20124;-65
2021/05/02 07:23:13;;;;;;;19.23;11.50;;;17.70;75.90;;;;;;5075696;28;20020;-65
2021/05/02 07:25:38;;;;;;;21.63;12.38;;;17.70;76.00;;;;;;5075892;28;20553;-65
2021/05/02 07:28:04;;;;;;;20.85;11.55;;;17.70;76.00;;;;;;5075998;28;20067;-65
2021/05/02 07:30:30;;;;;;;18.15;11.50;;;17.70;75.80;;;;;;5075951;28;20025;-65
2021/05/02 07:32:55;;;;;;;20.13;12.00;;;17.80;75.90;;;;;;5075880;28;20111;-65
2021/05/02 07:35:21;;;;;;;18.00;11.82;;;17.70;75.80;;;;;;5057744;28;20020;-65
2021/05/02 07:37:47;;;;;;;19.17;11.85;;;17.70;75.80;;;;;;5075521;28;20465;-65
2021/05/02 07:40:13;;;;;;;18.85;11.20;;;17.80;75.80;;;;;;5091259;28;20025;-65
2021/05/02 07:42:39;;;;;;;17.75;10.43;;;17.80;75.50;;;;;;5058249;28;20389;-65
2021/05/02 07:45:05;;;;;;;20.00;12.55;;;17.80;75.40;;;;;;5075642;28;20021;-65
2021/05/02 07:47:31;;;;;;;17.45;11.32;;;17.80;75.30;;;;;;5075727;28;20078;-66
2021/05/02 07:49:57;;;;;;;16.67;10.43;;;17.80;75.20;;;;;;5075461;28;20021;-65
2021/05/02 07:52:23;;;;;;;18.25;10.60;;;17.80;75.30;;;;;;5075184;28;20025;-65
2021/05/02 07:54:49;;;;;;;17.42;11.35;;;17.80;75.20;;;;;;5075208;28;20029;-65
2021/05/02 07:57:15;;;;;;;16.10;10.05;;;17.80;75.10;;;;;;5075376;28;20032;-65
2021/05/02 07:59:40;;;;;;;14.38;9.98;;;17.80;75.30;;;;;;5075068;28;20028;-65
2021/05/02 08:02:08;;;;;;;15.32;10.20;;;17.70;75.20;;;;;;5074968;28;20036;-70
2021/05/02 08:04:38;;;;;;;15.15;8.55;;;17.70;75.40;;;;;;5075279;28;20024;-70
2021/05/02 08:07:05;;;;;;;15.50;9.90;;;17.70;74.60;;;;;;5075177;28;20422;-63
2021/05/02 08:09:30;;;;;;;17.70;10.35;;;17.80;75.00;;;;;;5074804;28;20466;-57
2021/05/02 08:11:56;;;;;;;13.45;8.60;;;17.80;75.00;;;;;;5075005;28;20040;-61
2021/05/02 08:14:22;;;;;;;16.17;9.52;;;17.90;74.60;;;;;;5075057;28;20020;-65
2021/05/02 08:16:47;;;;;;;21.40;9.25;;;17.90;74.80;;;;;;5075094;28;20025;-63
2021/05/02 08:19:13;;;;;;;14.27;9.48;;;17.90;74.50;;;;;;5074856;28;20020;-68
2021/05/02 08:21:39;;;;;;;15.07;9.20;;;17.90;74.60;;;;;;5074488;28;20037;-68
2021/05/02 08:24:05;;;;;;;13.90;8.25;;;17.90;74.30;;;;;;5074974;28;20060;-64
2021/05/02 08:26:31;;;;;;;16.15;9.57;;;18.00;74.00;;;;;;5075124;28;20083;-63
2021/05/02 08:28:57;;;;;;;14.98;8.68;;;18.00;73.80;;;;;;5074725;28;20470;-66
2021/05/02 08:31:23;;;;;;;17.15;8.93;;;18.10;73.50;;;;;;5074758;28;20470;-62
2021/05/02 08:33:49;;;;;;;17.00;7.85;;;18.20;73.00;;;;;;5074744;28;20116;-65
2021/05/02 08:36:17;;;;;;;19.13;10.88;;;18.20;72.40;;;;;;5074509;28;20352;-63
2021/05/02 08:38:44;;;;;;;99.35;56.45;;;18.20;72.10;;;;;;5074061;28;20048;-63
2021/05/02 08:41:09;;;;;;;166.07;98.25;;;18.20;70.80;;;;;;5056806;28;20032;-65
2021/05/02 08:43:36;;;;;;;138.07;73.82;;;18.30;70.30;;;;;;5074491;28;20029;-64
2021/05/02 08:46:02;;;;;;;107.20;65.38;;;18.30;69.30;;;;;;5074153;28;20031;-64
2021/05/02 08:48:28;;;;;;;179.93;105.78;;;18.30;69.40;;;;;;5056255;28;20031;-64
2021/05/02 08:50:56;;;;;;;123.95;74.32;;;18.30;70.00;;;;;;5073860;28;20028;-65
2021/05/02 08:53:22;;;;;;;67.53;39.35;;;18.20;69.00;;;;;;5074110;28;20103;-64
2021/05/02 08:55:47;;;;;;;46.03;27.77;;;18.20;67.30;;;;;;5074371;28;20498;-63
2021/05/02 08:58:15;;;;;;;28.42;16.70;;;18.10;66.10;;;;;;5073896;28;20020;-70
2021/05/02 09:00:41;;;;;;;12.10;8.38;;;18.00;65.20;;;;;;5074137;28;20028;-63
2021/05/02 09:03:07;;;;;;;12.50;6.93;;;17.90;65.50;;;;;;5073782;28;20033;-63
2021/05/02 09:05:50;;;;;;;11.10;6.63;;;17.80;64.60;;;;;;5074039;28;20031;-71
2021/05/02 09:08:33;;;;;;;13.05;6.47;;;17.80;66.00;;;;;;5074320;28;20056;-62
2021/05/02 09:10:59;;;;;;;14.07;6.82;;;17.90;65.00;;;;;;5073926;28;20107;-66
2021/05/02 09:13:27;;;;;;;12.77;7.13;;;17.90;65.50;;;;;;5073796;28;20064;-63
2021/05/02 09:16:04;;;;;;;16.77;7.43;;;18.00;65.90;;;;;;5073878;28;20366;-63
2021/05/02 09:18:36;;;;;;;13.02;7.30;;;18.00;66.50;;;;;;5073752;28;20029;-63
2021/05/02 09:21:04;;;;;;;15.85;7.28;;;18.00;66.70;;;;;;5072943;28;20020;-63
2021/05/02 09:23:37;;;;;;;12.77;7.63;;;18.00;67.10;;;;;;5073449;28;20045;-63
2021/05/02 09:26:04;;;;;;;13.88;7.95;;;18.00;67.70;;;;;;5073543;28;20033;-63
2021/05/02 09:28:55;;;;;;;14.38;8.18;;;17.90;68.10;;;;;;5074362;28;20115;-63
2021/05/02 09:31:24;;;;;;;16.58;8.38;;;18.00;68.20;;;;;;5074067;28;20032;-63
2021/05/02 09:33:51;;;;;;;17.10;7.97;;;18.00;68.50;;;;;;5073697;28;20437;-63
2021/05/02 09:36:18;;;;;;;14.00;7.53;;;18.00;68.50;;;;;;5073703;28;20024;-63
2021/05/02 09:38:45;;;;;;;16.67;7.03;;;18.00;68.60;;;;;;5073430;28;20030;-64
2021/05/02 09:41:12;;;;;;;17.77;8.40;;;18.00;68.60;;;;;;5073513;28;20040;-63
2021/05/02 09:43:45;;;;;;;17.55;8.13;;;18.00;68.90;;;;;;5073464;28;20027;-63
2021/05/02 09:46:25;;;;;;;17.42;8.02;;;18.00;69.00;;;;;;5073608;28;20523;-63
2021/05/02 09:49:13;;;;;;;13.20;7.00;;;17.90;69.00;;;;;;5073441;28;20107;-63
2021/05/02 09:51:44;;;;;;;15.32;7.75;;;18.00;69.20;;;;;;5073372;28;20028;-63
2021/05/02 09:54:13;;;;;;;15.45;7.85;;;18.00;69.10;;;;;;5073696;28;20024;-63
2021/05/02 09:56:41;;;;;;;18.70;7.03;;;18.00;69.20;;;;;;5073648;28;20029;-63
2021/05/02 09:59:20;;;;;;;15.65;7.68;;;17.90;69.20;;;;;;5073397;28;20024;-63
2021/05/02 10:02:10;;;;;;;14.77;8.80;;;18.00;69.30;;;;;;5073576;28;20044;-63
2021/05/02 10:04:55;;;;;;;15.82;8.55;;;18.00;69.60;;;;;;5073476;28;20039;-63
2021/05/02 10:07:26;;;;;;;14.35;8.45;;;17.90;69.80;;;;;;5073427;28;20043;-63
2021/05/02 10:09:53;;;;;;;17.95;8.13;;;17.90;69.70;;;;;;5073286;28;20025;-64
2021/05/02 10:12:19;;;;;;;13.82;7.43;;;17.90;69.80;;;;;;5073152;28;20032;-63
2021/05/02 10:14:47;;;;;;;13.45;6.43;;;17.90;69.80;;;;;;5073144;28;20462;-63
2021/05/02 10:17:13;;;;;;;19.77;7.60;;;17.90;69.80;;;;;;5073274;28;20111;-63
2021/05/02 10:19:39;;;;;;;13.13;6.68;;;17.90;69.90;;;;;;5073007;28;20466;-63
2021/05/02 10:22:06;;;;;;;14.35;7.70;;;17.90;70.10;;;;;;5072993;28;20066;-63
2021/05/02 10:24:32;;;;;;;12.80;7.38;;;17.90;70.30;;;;;;5072646;28;20048;-63
2021/05/02 10:26:58;;;;;;;12.85;7.47;;;17.90;70.30;;;;;;5073369;28;20477;-63
2021/05/02 10:29:26;;;;;;;12.48;6.57;;;17.90;70.40;;;;;;5073093;28;20028;-63
2021/05/02 10:31:58;;;;;;;14.38;7.32;;;17.90;70.20;;;;;;5073035;28;20033;-63
2021/05/02 10:34:28;;;;;;;14.93;7.55;;;18.00;70.20;;;;;;5076460;28;20031;-63
2021/05/02 10:37:23;;;;;;;12.90;6.72;;;17.90;70.20;;;;;;5076581;28;20032;-65
2021/05/02 10:40:08;;;;;;;13.27;6.93;;;17.90;70.30;;;;;;5069706;28;20075;-63
2021/05/02 10:43:03;;;;;;;18.10;7.40;;;17.90;69.80;;;;;;5076737;28;20044;-63
2021/05/02 10:45:41;;;;;;;9.50;6.28;;;17.90;69.80;;;;;;5074892;28;20040;-63
2021/05/02 10:48:36;;;;;;;13.95;6.28;;;17.90;69.90;;;;;;5076679;28;20035;-63
2021/05/02 10:51:03;;;;;;;12.93;7.28;;;17.90;69.60;;;;;;5076632;28;20025;-63
2021/05/02 10:53:29;;;;;;;11.57;6.55;;;17.90;69.70;;;;;;5076421;28;20031;-63
2021/05/02 10:56:07;;;;;;;10.70;5.93;;;17.90;70.00;;;;;;5076440;28;20025;-63
2021/05/02 10:58:37;;;;;;;11.00;5.88;;;17.90;69.90;;;;;;5076707;28;20032;-63
2021/05/02 11:01:04;;;;;;;;;;;17.80;70.20;;;;;;5058852;28;20025;-63
2021/05/02 11:03:37;;;;;;;10.77;5.85;;;17.80;70.20;;;;;;5076461;28;20281;-63
2021/05/02 11:06:04;;;;;;;11.77;6.55;;;17.80;70.50;;;;;;5076354;28;20111;-63
2021/05/02 11:08:57;;;;;;;13.60;7.07;;;17.80;70.60;;;;;;5076795;28;20031;-63
2021/05/02 11:14:10;;;;;;;9.63;5.43;;;17.70;70.30;;;;;;5076098;28;20063;-63
2021/05/02 11:16:42;;;;;;;12.85;6.93;;;17.80;70.20;;;;;;5075948;28;20361;-63
2021/05/02 11:19:24;;;;;;;12.60;6.30;;;17.80;70.20;;;;;;5075998;28;20052;-63
2021/05/02 11:21:50;;;;;;;11.32;6.53;;;17.90;69.90;;;;;;5076090;28;20397;-63
2021/05/02 11:24:39;;;;;;;12.07;5.95;;;17.80;70.00;;;;;;5076056;28;20091;-63
2021/05/02 11:27:18;;;;;;;11.68;6.55;;;17.80;70.30;;;;;;5065287;28;20044;-63
2021/05/02 11:30:07;;;;;;;16.83;6.38;;;17.90;70.20;;;;;;5076236;28;20097;-63
2021/05/02 11:32:39;;;;;;;12.23;6.70;;;17.90;70.30;;;;;;5075952;28;20462;-63
2021/05/02 11:35:07;;;;;;;9.73;5.68;;;17.90;70.00;;;;;;5075830;28;20401;-63
2021/05/02 11:38:04;;;;;;;13.27;6.57;;;17.90;70.00;;;;;;5075708;28;20040;-63
2021/05/02 11:40:30;;;;;;;8.95;5.72;;;17.90;69.80;;;;;;5075869;28;20393;-63
2021/05/02 11:43:05;;;;;;;9.68;5.88;;;17.90;70.10;;;;;;5075609;28;20116;-63
2021/05/02 11:45:47;;;;;;;9.48;5.78;;;17.80;70.20;;;;;;5074725;28;20104;-63
2021/05/02 11:48:27;;;;;;;9.25;5.25;;;17.80;70.20;;;;;;5075544;28;20024;-63
2021/05/02 11:50:59;;;;;;;8.60;5.55;;;17.80;70.20;;;;;;5075709;28;20037;-63
2021/05/02 11:53:46;;;;;;;9.13;4.90;;;17.80;70.20;;;;;;5075694;28;20031;-63
2021/05/02 11:56:22;;;;;;;8.27;5.18;;;17.80;69.90;;;;;;5075911;28;20033;-63
2021/05/02 11:59:01;;;;;;;8.85;5.38;;;17.80;69.30;;;;;;5075525;28;20034;-63
2021/05/02 12:01:30;;;;;;;8.70;4.85;;;17.80;68.90;;;;;;5075050;28;20044;-63
2021/05/02 12:04:07;;;;;;;10.18;6.00;;;17.80;69.10;;;;;;5074955;28;20485;-63
2021/05/02 12:06:35;;;;;;;10.77;5.75;;;17.80;69.20;;;;;;5074681;28;20386;-63
2021/05/02 12:09:10;;;;;;;8.60;5.65;;;17.80;69.30;;;;;;5075388;28;20020;-63
2021/05/02 12:11:35;;;;;;;9.40;5.13;;;17.70;68.50;;;;;;5075448;28;20058;-63
2021/05/02 12:14:01;;;;;;;8.35;4.93;;;17.80;68.60;;;;;;5074768;28;20040;-63
2021/05/02 12:16:29;;;;;;;7.55;5.13;;;17.80;68.10;;;;;;5074849;28;20025;-63
2021/05/02 12:19:01;;;;;;;10.10;5.53;;;17.80;68.20;;;;;;5074924;28;20024;-63
2021/05/02 12:21:37;;;;;;;9.80;5.28;;;17.80;68.60;;;;;;5074919;28;20036;-63
2021/05/02 12:24:25;;;;;;;9.48;5.70;;;17.70;68.70;;;;;;5075077;28;20059;-63
2021/05/02 12:26:56;;;;;;;8.60;5.15;;;17.70;68.80;;;;;;5057562;28;20032;-63
2021/05/02 12:29:25;;;;;;;8.85;4.47;;;17.70;69.00;;;;;;5056654;28;20020;-63
2021/05/02 12:31:55;;;;;;;8.13;4.43;;;17.80;69.10;;;;;;5074646;28;20075;-63
2021/05/02 12:34:26;;;;;;;9.97;4.80;;;17.80;69.20;;;;;;5074679;28;20045;-63
2021/05/02 12:36:53;;;;;;;9.07;5.15;;;17.80;68.60;;;;;;5074784;28;20255;-63
2021/05/02 12:39:19;;;;;;;8.73;5.07;;;17.80;68.70;;;;;;5056604;28;20458;-63
2021/05/02 12:41:52;;;;;;;7.63;4.53;;;17.80;68.50;;;;;;5074210;28;20055;-63
2021/05/02 12:44:25;;;;;;;11.52;5.30;;;17.80;68.30;;;;;;5057265;28;20024;-63